Topeka, KS

5:52 AM CDT on August 05, 2015 (GMT -0500)
Elmhurst | | Change Station
CLOSE
Current Station
Personal Weather Station
Location: Topeka, KS
Elevation: 953 ft
Nearby Weather Stations

Elev 953 ft 39.05 °N, 95.70 °W | Updated 2 minutes ago

Mostly Cloudy
Mostly Cloudy
69.6 °F
Feels Like 69.6 °F
N
1.0
Wind Variable Wind from ESE

Today
High -- | Low -- °F
--% Chance of Precip.
Yesterday
High -- | Low -- °F
Precip. -- in
6:26 AM 8:30 PM
Waning Gibbous, 68% visible
Pressure 29.95 in
Visibility 6.0 miles
Clouds Few 800 ft
Mostly Cloudy 3600 ft
Dew Point 68 °F
Humidity 96%
Rainfall 0.00 in
Snow Depth Not available.
UV 0 out of 12
Pollen 7.00 out of 12
Air Quality Not available.
Flu Activity Not available.
SPECI KTOP 051029Z AUTO 10004KT 6SM BR FEW008 BKN036 22/21 A2995 RMK AO2 LTG DSNT SW T02170206

More Conditions Fewer Conditions

Pressure 29.95 in
Visibility 6.0 miles
Clouds Few 800 ft
Mostly Cloudy 3600 ft
Dew Point 68 °F
Humidity 96%
Rainfall 0.00 in
Snow Depth Not available.
UV 0 out of 12
Pollen 7.00 out of 12
Air Quality Not available.
Flu Activity Not available.
SPECI KTOP 051029Z AUTO 10004KT 6SM BR FEW008 BKN036 22/21 A2995 RMK AO2 LTG DSNT SW T02170206

More Conditions Fewer Conditions

10-Day Weather Forecast

×

Almanac

Astronomy

Aug. 05, 2015 Rise Set
Actual Time
Civil Twilight
Nautical Twilight
Astronomical Twilight
Moon
Length of Visible Light
Length of Day
Tomorrow will be .
, % of the Moon is Illuminated

Today's Extremes

State Highs State Lows

Community

WunderPhotos

Upload Photos

1,844,115 photos uploaded!

WunderBlogs® & News

Nearby

Air Quality

  Air Quality AQ Index Pollutant
Not available.

Snow Depth

Station Depth Elevation

Earthquake Activity

City Distance Mag. Time & Date
Minimum magnitude displayed is 2.5.

Coastal Water Temperatures

Place Temperature

Stations

Nearby Weather Stations

Station Location Temp. Windchill Dew Point Humidity Wind Precip. Elev Updated Type